createdAt,value
2017-12-15T00:00:02.666Z,0
2017-12-15T00:00:43.237Z,0
2017-12-15T00:01:23.742Z,0
2017-12-15T00:02:04.286Z,0
2017-12-15T00:02:44.823Z,0
2017-12-15T00:03:25.408Z,0
2017-12-15T00:04:05.877Z,0
2017-12-15T00:04:46.450Z,0
2017-12-15T00:05:26.931Z,0
2017-12-15T00:06:07.506Z,0
2017-12-15T00:06:48.067Z,0
2017-12-15T00:07:28.557Z,0
2017-12-15T00:08:09.139Z,0
2017-12-15T00:08:49.720Z,0
2017-12-15T00:09:30.571Z,0
2017-12-15T00:10:11.089Z,0
2017-12-15T00:10:51.640Z,0
2017-12-15T00:11:32.190Z,0
2017-12-15T00:12:12.690Z,0
2017-12-15T00:12:53.261Z,0
2017-12-15T00:13:33.787Z,0
2017-12-15T00:14:14.297Z,0
2017-12-15T00:14:54.914Z,0
2017-12-15T00:15:35.441Z,0
2017-12-15T00:16:15.960Z,0
2017-12-15T00:16:56.498Z,0
2017-12-15T00:17:37.059Z,0
2017-12-15T00:18:17.565Z,0
2017-12-15T00:18:58.117Z,0
2017-12-15T00:19:38.668Z,0
2017-12-15T00:20:19.241Z,0
2017-12-15T00:20:59.785Z,0
2017-12-15T00:21:40.313Z,0
2017-12-15T00:22:20.861Z,0
2017-12-15T00:23:01.401Z,0
2017-12-15T00:23:41.895Z,0
2017-12-15T00:24:22.445Z,0
2017-12-15T00:25:02.976Z,0
2017-12-15T00:25:43.562Z,0
2017-12-15T00:26:24.102Z,0
2017-12-15T00:27:04.600Z,0
2017-12-15T00:27:45.139Z,0
2017-12-15T00:28:25.754Z,0
2017-12-15T00:29:06.275Z,0
2017-12-15T00:29:46.758Z,0
2017-12-15T00:30:27.283Z,0
2017-12-15T00:31:07.868Z,0
2017-12-15T00:31:48.387Z,0
2017-12-15T00:32:28.908Z,0
2017-12-15T00:33:09.450Z,0
2017-12-15T00:33:49.960Z,0
2017-12-15T00:34:30.540Z,0
2017-12-15T00:35:11.150Z,0
2017-12-15T00:35:51.696Z,0
2017-12-15T00:36:32.217Z,0
2017-12-15T00:37:12.753Z,0
2017-12-15T00:37:53.269Z,0
2017-12-15T00:38:33.780Z,0
2017-12-15T00:39:14.301Z,0
2017-12-15T00:39:54.857Z,0
2017-12-15T00:40:35.366Z,0
2017-12-15T00:41:15.906Z,0
2017-12-15T00:41:56.490Z,0
2017-12-15T00:42:37.034Z,0
2017-12-15T00:43:17.610Z,0
2017-12-15T00:43:58.065Z,0
2017-12-15T00:44:38.583Z,0
2017-12-15T00:45:19.115Z,0
2017-12-15T00:45:59.592Z,0
2017-12-15T00:46:40.137Z,0
2017-12-15T00:47:20.710Z,0
2017-12-15T00:48:01.236Z,0
2017-12-15T00:48:41.795Z,0
2017-12-15T00:49:22.312Z,0
2017-12-15T00:50:02.846Z,0
2017-12-15T00:50:43.380Z,0
2017-12-15T00:51:23.917Z,0
2017-12-15T00:52:04.646Z,0
2017-12-15T00:52:45.213Z,0
2017-12-15T00:53:25.753Z,0
2017-12-15T00:54:06.240Z,0
2017-12-15T00:54:46.752Z,0
2017-12-15T00:55:27.300Z,0
2017-12-15T00:56:07.841Z,0
2017-12-15T00:56:48.559Z,0
2017-12-15T00:57:29.064Z,0
2017-12-15T00:58:09.610Z,0
2017-12-15T00:58:50.091Z,0
2017-12-15T00:59:30.615Z,0
2017-12-15T01:00:11.152Z,0
2017-12-15T01:00:51.738Z,0
2017-12-15T01:01:32.328Z,0
2017-12-15T01:02:12.886Z,0
2017-12-15T01:02:53.384Z,0
2017-12-15T01:03:33.927Z,0
2017-12-15T01:04:14.421Z,0
2017-12-15T01:04:54.963Z,0
2017-12-15T01:05:35.529Z,0
2017-12-15T01:06:16.020Z,0
2017-12-15T01:06:56.614Z,0
2017-12-15T01:07:37.145Z,0
2017-12-15T01:08:17.735Z,0
2017-12-15T01:08:58.313Z,0
2017-12-15T01:09:38.793Z,0
2017-12-15T01:10:19.363Z,0
2017-12-15T01:10:59.877Z,0
2017-12-15T01:11:40.430Z,0
2017-12-15T01:12:20.999Z,0
2017-12-15T01:13:01.512Z,0
2017-12-15T01:13:42.085Z,0
2017-12-15T01:14:22.614Z,0
2017-12-15T01:15:03.134Z,0
2017-12-15T01:15:43.668Z,0
2017-12-15T01:16:24.169Z,0
2017-12-15T01:17:04.738Z,0
2017-12-15T01:17:45.264Z,0
2017-12-15T01:18:25.869Z,0
2017-12-15T01:19:06.387Z,0
2017-12-15T01:19:46.956Z,0
2017-12-15T01:20:27.457Z,0
2017-12-15T01:21:08.084Z,0
2017-12-15T01:21:48.640Z,0
2017-12-15T01:22:29.183Z,0
2017-12-15T01:23:09.757Z,0
2017-12-15T01:23:50.380Z,0
2017-12-15T01:24:30.892Z,0
2017-12-15T01:25:11.440Z,0
2017-12-15T01:25:51.981Z,0
2017-12-15T01:26:32.548Z,0
2017-12-15T01:27:13.065Z,0
2017-12-15T01:27:53.588Z,0
2017-12-15T01:28:34.161Z,0
2017-12-15T01:29:14.696Z,0
2017-12-15T01:29:55.233Z,0
2017-12-15T01:30:35.761Z,0
2017-12-15T01:31:16.324Z,0
2017-12-15T01:31:56.864Z,0
2017-12-15T01:32:37.378Z,0
2017-12-15T01:33:17.922Z,0
2017-12-15T01:33:58.459Z,0
2017-12-15T01:34:39.004Z,0
2017-12-15T01:35:19.548Z,0
2017-12-15T01:36:00.046Z,0
2017-12-15T01:36:40.628Z,0
2017-12-15T01:37:21.127Z,0
2017-12-15T01:38:01.679Z,0
2017-12-15T01:38:42.197Z,0
2017-12-15T01:39:22.760Z,0
2017-12-15T01:40:03.292Z,0
2017-12-15T01:40:43.954Z,0
2017-12-15T01:41:24.461Z,0
2017-12-15T01:42:04.999Z,0
2017-12-15T01:42:45.610Z,0
2017-12-15T01:43:26.253Z,0
2017-12-15T01:44:06.752Z,0
2017-12-15T01:44:47.276Z,0
2017-12-15T01:45:27.881Z,0
2017-12-15T01:46:08.391Z,0
2017-12-15T01:46:48.941Z,0
2017-12-15T01:47:29.515Z,0
2017-12-15T01:48:10.044Z,0
2017-12-15T01:48:50.630Z,0
2017-12-15T01:49:31.112Z,0
2017-12-15T01:50:11.721Z,0
2017-12-15T01:50:52.211Z,0
2017-12-15T01:51:32.730Z,0
2017-12-15T01:52:13.241Z,0
2017-12-15T01:52:53.848Z,0
2017-12-15T01:53:34.380Z,0
2017-12-15T01:54:14.911Z,0
2017-12-15T01:54:55.487Z,0
2017-12-15T01:55:35.985Z,0
2017-12-15T01:56:16.490Z,0
2017-12-15T01:56:57.057Z,0
2017-12-15T01:57:37.570Z,0
2017-12-15T01:58:18.100Z,0
2017-12-15T01:58:58.684Z,0
2017-12-15T01:59:39.249Z,0
2017-12-15T02:00:19.852Z,0
2017-12-15T02:01:00.409Z,0
2017-12-15T02:01:41.079Z,0
2017-12-15T02:02:21.592Z,0
2017-12-15T02:03:02.220Z,0
2017-12-15T02:03:42.730Z,0
2017-12-15T02:04:23.248Z,0
2017-12-15T02:05:03.809Z,0
2017-12-15T02:05:44.344Z,0
2017-12-15T02:06:24.930Z,0
2017-12-15T02:07:05.494Z,0
2017-12-15T02:07:46.011Z,0
2017-12-15T02:08:26.500Z,0
2017-12-15T02:09:07.018Z,0
2017-12-15T02:09:47.591Z,0
2017-12-15T02:10:28.093Z,0
2017-12-15T02:11:08.623Z,0
2017-12-15T02:11:49.156Z,0
2017-12-15T02:12:29.684Z,0
2017-12-15T02:13:10.242Z,0
2017-12-15T02:13:50.789Z,0
2017-12-15T02:14:31.340Z,0
2017-12-15T02:15:11.861Z,0
2017-12-15T02:15:52.391Z,0
2017-12-15T02:16:32.915Z,0
2017-12-15T02:17:13.466Z,0
2017-12-15T02:17:54.028Z,0
2017-12-15T02:18:34.533Z,0
2017-12-15T02:19:15.096Z,0
2017-12-15T02:19:55.842Z,0
2017-12-15T02:20:36.549Z,0
2017-12-15T02:21:17.465Z,0
2017-12-15T02:21:58.370Z,0
2017-12-15T02:22:39.114Z,0
2017-12-15T02:23:19.749Z,0
2017-12-15T02:24:00.420Z,0
2017-12-15T02:24:41.568Z,0
2017-12-15T02:25:22.183Z,0
2017-12-15T02:26:02.950Z,0
2017-12-15T02:26:43.498Z,0
2017-12-15T02:27:24.331Z,0
2017-12-15T02:28:04.822Z,0
2017-12-15T02:28:45.441Z,0
2017-12-15T02:29:26.318Z,0
2017-12-15T02:30:06.846Z,0
2017-12-15T02:30:47.496Z,0
2017-12-15T02:31:28.135Z,0
2017-12-15T02:32:08.872Z,0
2017-12-15T02:32:49.616Z,0
2017-12-15T02:33:30.256Z,0
2017-12-15T02:34:10.970Z,0
2017-12-15T02:34:51.642Z,0
2017-12-15T02:35:32.530Z,0
2017-12-15T02:36:14.268Z,0
2017-12-15T02:36:55.141Z,0
2017-12-15T02:37:35.789Z,0
2017-12-15T02:38:16.549Z,0
2017-12-15T02:38:57.500Z,0
2017-12-15T02:39:38.053Z,0
2017-12-15T02:40:18.651Z,0
2017-12-15T02:40:59.174Z,0
2017-12-15T02:41:39.764Z,0
2017-12-15T02:42:20.436Z,0
2017-12-15T02:43:01.032Z,0
2017-12-15T02:43:41.718Z,0
2017-12-15T02:44:22.278Z,0
2017-12-15T02:45:03.022Z,0
2017-12-15T02:45:43.567Z,0
2017-12-15T02:46:24.193Z,0
2017-12-15T02:47:04.692Z,0
2017-12-15T02:47:45.361Z,0
2017-12-15T02:48:25.871Z,0
2017-12-15T02:49:06.653Z,0
2017-12-15T02:49:47.370Z,0
2017-12-15T02:50:28.067Z,0
2017-12-15T02:51:08.679Z,0
2017-12-15T02:51:49.677Z,0
2017-12-15T02:52:30.517Z,0
2017-12-15T02:53:11.263Z,0
2017-12-15T02:53:52.414Z,0
2017-12-15T02:54:32.958Z,0
2017-12-15T02:55:13.892Z,0
2017-12-15T02:55:54.526Z,0
2017-12-15T02:56:35.223Z,0
2017-12-15T02:57:15.723Z,0
2017-12-15T02:57:56.401Z,0
2017-12-15T02:58:37.037Z,0
2017-12-15T02:59:17.704Z,0
2017-12-15T02:59:58.261Z,0
2017-12-15T03:00:39.101Z,0
2017-12-15T03:01:20.035Z,0
2017-12-15T03:02:00.919Z,0
2017-12-15T03:02:41.729Z,0
2017-12-15T03:03:23.630Z,0
2017-12-15T03:04:04.265Z,0
2017-12-15T03:04:44.990Z,0
2017-12-15T03:05:25.604Z,0
2017-12-15T03:06:06.538Z,0
2017-12-15T03:06:47.371Z,0
2017-12-15T03:07:28.043Z,0
2017-12-15T03:08:08.711Z,0
2017-12-15T03:08:49.438Z,0
2017-12-15T03:09:29.988Z,0
2017-12-15T03:10:10.533Z,0
2017-12-15T03:10:51.488Z,0
2017-12-15T03:11:32.252Z,0
2017-12-15T03:12:12.986Z,0
2017-12-15T03:12:53.751Z,0
2017-12-15T03:13:34.552Z,0
2017-12-15T03:14:15.325Z,0
2017-12-15T03:14:55.826Z,0
2017-12-15T03:15:36.661Z,0
2017-12-15T03:16:17.388Z,0
2017-12-15T03:16:58.074Z,0
2017-12-15T03:17:39.035Z,0
2017-12-15T03:18:20.008Z,0
2017-12-15T03:19:00.903Z,0
2017-12-15T03:19:41.548Z,0
2017-12-15T03:20:22.138Z,0
2017-12-15T03:21:02.735Z,0
2017-12-15T03:21:43.499Z,0
2017-12-15T03:22:24.128Z,0
2017-12-15T03:23:04.733Z,0
2017-12-15T03:23:45.642Z,0
2017-12-15T03:24:26.314Z,0
2017-12-15T03:25:07.563Z,0
2017-12-15T03:25:48.492Z,0
2017-12-15T03:26:29.202Z,0
2017-12-15T03:27:09.828Z,0
2017-12-15T03:27:50.562Z,0
2017-12-15T03:28:31.423Z,0
2017-12-15T03:29:11.888Z,0
2017-12-15T03:29:52.472Z,0
2017-12-15T03:30:33.004Z,0
2017-12-15T03:31:13.512Z,0
2017-12-15T03:31:54.060Z,0
2017-12-15T03:32:34.615Z,0
2017-12-15T03:33:15.100Z,0
2017-12-15T03:33:55.650Z,0
2017-12-15T03:34:36.198Z,0
2017-12-15T03:35:16.762Z,0
2017-12-15T03:35:57.204Z,0
2017-12-15T03:36:37.796Z,0
2017-12-15T03:37:18.279Z,0
2017-12-15T03:37:58.897Z,0
2017-12-15T03:38:39.385Z,0
2017-12-15T03:39:19.931Z,0
2017-12-15T03:40:00.538Z,0
2017-12-15T03:40:41.016Z,0
2017-12-15T03:41:21.581Z,0
2017-12-15T03:42:02.124Z,0
2017-12-15T03:42:42.664Z,0
2017-12-15T03:43:23.115Z,0
2017-12-15T03:44:03.674Z,0
2017-12-15T03:44:44.215Z,0
2017-12-15T03:45:24.682Z,0
2017-12-15T03:46:05.241Z,0
2017-12-15T03:46:45.742Z,0
2017-12-15T03:47:26.288Z,0
2017-12-15T03:48:06.889Z,0
2017-12-15T03:48:47.335Z,0
2017-12-15T03:49:27.904Z,0
2017-12-15T03:50:08.447Z,0
2017-12-15T03:50:48.923Z,0
2017-12-15T03:51:29.519Z,0
2017-12-15T03:52:10.126Z,0
2017-12-15T03:52:51.130Z,0
2017-12-15T03:53:31.207Z,0
2017-12-15T03:54:11.710Z,0
2017-12-15T03:54:52.260Z,0
2017-12-15T03:55:32.793Z,0
2017-12-15T03:56:13.335Z,0
2017-12-15T03:56:53.848Z,0
2017-12-15T03:57:34.386Z,0
2017-12-15T03:58:15.046Z,0
2017-12-15T03:58:55.636Z,0
2017-12-15T03:59:36.191Z,0
2017-12-15T04:00:16.767Z,0
2017-12-15T04:00:57.329Z,0
2017-12-15T04:01:37.855Z,0
2017-12-15T04:02:18.358Z,0
2017-12-15T04:02:58.974Z,0
2017-12-15T04:03:39.543Z,0
2017-12-15T04:04:20.181Z,0
2017-12-15T04:05:00.753Z,0
2017-12-15T04:05:41.290Z,0
2017-12-15T04:06:21.820Z,0
2017-12-15T04:07:02.347Z,0
2017-12-15T04:07:42.937Z,0
2017-12-15T04:08:23.432Z,0
2017-12-15T04:09:03.965Z,0
2017-12-15T04:09:44.492Z,0
2017-12-15T04:10:25.040Z,0
2017-12-15T04:11:05.588Z,0
2017-12-15T04:11:46.101Z,0
2017-12-15T04:12:26.654Z,0
2017-12-15T04:13:07.154Z,0
2017-12-15T04:13:47.646Z,0
2017-12-15T04:14:28.189Z,0
2017-12-15T04:15:08.755Z,0
2017-12-15T04:15:49.284Z,0
2017-12-15T04:16:29.845Z,0
2017-12-15T04:17:10.367Z,0
2017-12-15T04:17:50.933Z,0
2017-12-15T04:18:31.580Z,0
2017-12-15T04:19:12.180Z,0
2017-12-15T04:19:52.669Z,0
2017-12-15T04:20:33.238Z,0
2017-12-15T04:21:13.780Z,0
2017-12-15T04:21:54.294Z,0
2017-12-15T04:22:34.803Z,0
2017-12-15T04:23:15.316Z,0
2017-12-15T04:23:55.834Z,0
2017-12-15T04:24:36.345Z,0
2017-12-15T04:25:16.901Z,0
2017-12-15T04:25:57.470Z,0
2017-12-15T04:26:38.064Z,0
2017-12-15T04:27:18.547Z,0
2017-12-15T04:27:59.082Z,0
2017-12-15T04:28:39.701Z,0
2017-12-15T04:29:20.201Z,0
2017-12-15T04:30:00.739Z,0
2017-12-15T04:30:41.320Z,0
2017-12-15T04:31:21.814Z,0
2017-12-15T04:32:02.356Z,0
2017-12-15T04:32:42.903Z,0
2017-12-15T04:33:23.448Z,0
2017-12-15T04:34:03.955Z,0
2017-12-15T04:34:44.459Z,0
2017-12-15T04:35:25.041Z,0
2017-12-15T04:36:05.568Z,0
2017-12-15T04:36:46.110Z,0
2017-12-15T04:37:26.678Z,0
2017-12-15T04:38:07.194Z,0
2017-12-15T04:38:47.703Z,0
2017-12-15T04:39:28.296Z,0
2017-12-15T04:40:08.769Z,0
2017-12-15T04:40:49.295Z,0
2017-12-15T04:41:29.947Z,0
2017-12-15T04:42:10.436Z,0
2017-12-15T04:42:50.946Z,0
2017-12-15T04:43:31.460Z,0
2017-12-15T04:44:12.003Z,0
2017-12-15T04:44:52.548Z,0
2017-12-15T04:45:33.113Z,0
2017-12-15T04:46:13.647Z,0
2017-12-15T04:46:54.219Z,0
2017-12-15T04:47:34.755Z,0
2017-12-15T04:48:15.317Z,0
2017-12-15T04:48:55.820Z,0
2017-12-15T04:49:36.329Z,0
2017-12-15T04:50:16.858Z,0
2017-12-15T04:50:57.467Z,0
2017-12-15T04:51:37.999Z,0
2017-12-15T04:52:18.543Z,0
2017-12-15T04:52:59.075Z,0
2017-12-15T04:53:39.563Z,0
2017-12-15T04:54:20.129Z,0
2017-12-15T04:55:00.642Z,0
2017-12-15T04:55:41.322Z,0
2017-12-15T04:56:21.775Z,0
2017-12-15T04:57:02.404Z,0
2017-12-15T04:57:42.886Z,0
2017-12-15T04:58:23.449Z,0
2017-12-15T04:59:03.938Z,0
2017-12-15T04:59:44.453Z,0
2017-12-15T05:00:25.144Z,0
2017-12-15T05:01:05.671Z,0
2017-12-15T05:01:46.169Z,0
2017-12-15T05:02:26.707Z,0
2017-12-15T05:03:07.276Z,0
2017-12-15T05:03:47.815Z,0
2017-12-15T05:04:28.335Z,0
2017-12-15T05:05:08.867Z,0
2017-12-15T05:05:49.399Z,0
2017-12-15T05:06:29.958Z,0
2017-12-15T05:07:10.517Z,0
2017-12-15T05:07:51.025Z,0
2017-12-15T05:08:31.584Z,0
2017-12-15T05:09:12.117Z,0
2017-12-15T05:09:52.592Z,0
2017-12-15T05:10:33.199Z,0
2017-12-15T05:11:13.705Z,0
2017-12-15T05:11:54.240Z,0
2017-12-15T05:12:34.829Z,0
2017-12-15T05:13:15.379Z,0
2017-12-15T05:13:55.901Z,0
2017-12-15T05:14:36.371Z,0
2017-12-15T05:15:16.919Z,0
2017-12-15T05:15:57.447Z,0
2017-12-15T05:16:37.980Z,0
2017-12-15T05:17:18.547Z,0
2017-12-15T05:17:59.068Z,0
2017-12-15T05:18:39.577Z,0
2017-12-15T05:19:20.095Z,0
2017-12-15T05:20:00.666Z,0
2017-12-15T05:20:41.205Z,0
2017-12-15T05:21:21.775Z,0
2017-12-15T05:22:02.322Z,0
2017-12-15T05:22:42.886Z,0
2017-12-15T05:23:23.411Z,0
2017-12-15T05:24:04.007Z,0
2017-12-15T05:24:44.544Z,0
2017-12-15T05:25:25.048Z,0
2017-12-15T05:26:05.618Z,0
2017-12-15T05:26:46.118Z,0
2017-12-15T05:27:26.650Z,0
2017-12-15T05:28:07.216Z,0
2017-12-15T05:28:47.780Z,0
2017-12-15T05:29:28.275Z,0
2017-12-15T05:30:08.850Z,0
2017-12-15T05:30:49.369Z,0
2017-12-15T05:31:29.861Z,0
2017-12-15T05:32:10.383Z,0
2017-12-15T05:32:50.928Z,0
2017-12-15T05:33:31.489Z,0
2017-12-15T05:34:11.988Z,0
2017-12-15T05:34:52.536Z,0
2017-12-15T05:35:33.134Z,0
2017-12-15T05:36:13.643Z,0
2017-12-15T05:36:54.187Z,0
2017-12-15T05:37:34.705Z,0
2017-12-15T05:38:15.220Z,0
2017-12-15T05:38:55.752Z,0
2017-12-15T05:39:36.313Z,0
2017-12-15T05:40:16.852Z,0
2017-12-15T05:40:57.348Z,0
2017-12-15T05:41:37.873Z,0
2017-12-15T05:42:18.422Z,0
2017-12-15T05:42:58.985Z,0
2017-12-15T05:43:39.560Z,0
2017-12-15T05:44:20.128Z,0
2017-12-15T05:45:00.646Z,0
2017-12-15T05:45:41.202Z,0
2017-12-15T05:46:21.715Z,0
2017-12-15T05:47:02.239Z,0
2017-12-15T05:47:42.786Z,0
2017-12-15T05:48:23.328Z,0
2017-12-15T05:49:03.967Z,0
2017-12-15T05:49:44.491Z,0
2017-12-15T05:50:25.050Z,0
2017-12-15T05:51:05.561Z,0
2017-12-15T05:51:46.060Z,0
2017-12-15T05:52:26.573Z,0
2017-12-15T05:53:07.123Z,0
2017-12-15T05:53:47.661Z,0
2017-12-15T05:54:28.134Z,0
2017-12-15T05:55:08.719Z,0
2017-12-15T05:55:49.225Z,0
2017-12-15T05:56:29.731Z,0
2017-12-15T05:57:10.248Z,0
2017-12-15T05:57:50.799Z,0
2017-12-15T05:58:31.345Z,0
2017-12-15T05:59:11.874Z,0
2017-12-15T05:59:52.436Z,0
2017-12-15T06:00:32.976Z,0
2017-12-15T06:01:13.494Z,0
2017-12-15T06:01:54.083Z,0
2017-12-15T06:02:34.635Z,0
2017-12-15T06:03:15.130Z,0
2017-12-15T06:03:55.726Z,0
2017-12-15T06:04:36.246Z,0
2017-12-15T06:05:16.767Z,0
2017-12-15T06:05:57.343Z,0
2017-12-15T06:06:37.847Z,0
2017-12-15T06:07:18.430Z,0
2017-12-15T06:07:58.915Z,0
2017-12-15T06:08:39.564Z,0
2017-12-15T06:09:20.052Z,0
2017-12-15T06:10:00.558Z,0
2017-12-15T06:10:41.150Z,0
2017-12-15T06:11:21.664Z,0
2017-12-15T06:12:02.198Z,0
2017-12-15T06:12:42.924Z,0
2017-12-15T06:13:23.459Z,0
2017-12-15T06:14:04.011Z,0
2017-12-15T06:14:44.621Z,0
2017-12-15T06:15:25.108Z,0
2017-12-15T06:16:05.644Z,0
2017-12-15T06:16:46.197Z,0
2017-12-15T06:17:26.689Z,0
2017-12-15T06:18:07.243Z,0
2017-12-15T06:18:47.798Z,0
2017-12-15T06:19:28.292Z,0
2017-12-15T06:20:08.835Z,0
2017-12-15T06:20:49.312Z,0
2017-12-15T06:21:29.850Z,0
2017-12-15T06:22:10.406Z,0
2017-12-15T06:22:50.935Z,0
2017-12-15T06:23:31.562Z,0
2017-12-15T06:24:12.050Z,0
2017-12-15T06:24:52.572Z,0
2017-12-15T06:25:33.094Z,0
2017-12-15T06:26:13.630Z,0
2017-12-15T06:26:54.280Z,0
2017-12-15T06:27:34.849Z,0
2017-12-15T06:28:15.338Z,0
2017-12-15T06:28:55.903Z,0
2017-12-15T06:29:36.435Z,0
2017-12-15T06:30:17.021Z,0
2017-12-15T06:30:57.532Z,0
2017-12-15T06:31:38.088Z,0
2017-12-15T06:32:18.644Z,0
2017-12-15T06:32:59.168Z,0
2017-12-15T06:33:39.716Z,0
2017-12-15T06:34:20.225Z,0
2017-12-15T06:35:00.932Z,0
2017-12-15T06:35:41.398Z,0
2017-12-15T06:36:22.013Z,0
2017-12-15T06:37:02.596Z,0
2017-12-15T06:37:43.126Z,0
2017-12-15T06:38:23.676Z,0
2017-12-15T06:39:04.237Z,0
2017-12-15T06:39:44.833Z,0
2017-12-15T06:40:25.368Z,0
2017-12-15T06:41:05.913Z,0
2017-12-15T06:41:46.473Z,0
2017-12-15T06:42:26.985Z,0
2017-12-15T06:43:07.562Z,0
2017-12-15T06:43:48.057Z,0
2017-12-15T06:44:28.606Z,0
2017-12-15T06:45:09.120Z,0
2017-12-15T06:45:49.656Z,0
2017-12-15T06:46:30.155Z,0
2017-12-15T06:47:10.690Z,0
2017-12-15T06:47:51.206Z,0
2017-12-15T06:48:31.778Z,0
2017-12-15T06:49:12.319Z,0
2017-12-15T06:49:52.859Z,4
2017-12-15T06:50:33.373Z,4
2017-12-15T06:51:13.905Z,4
2017-12-15T06:51:54.437Z,0
2017-12-15T06:52:34.975Z,4
2017-12-15T06:53:15.530Z,4
2017-12-15T06:53:56.073Z,4
2017-12-15T06:54:36.633Z,4
2017-12-15T06:55:17.130Z,4
2017-12-15T06:55:57.702Z,4
2017-12-15T06:56:38.289Z,8
2017-12-15T06:57:18.846Z,8
2017-12-15T06:57:59.472Z,8
2017-12-15T06:58:39.991Z,8
2017-12-15T06:59:20.497Z,8
2017-12-15T07:00:01.025Z,12
2017-12-15T07:00:41.560Z,12
2017-12-15T07:01:22.177Z,12
2017-12-15T07:02:02.684Z,16
2017-12-15T07:02:43.345Z,20
2017-12-15T07:03:23.951Z,16
2017-12-15T07:04:04.527Z,20
2017-12-15T07:04:45.024Z,20
2017-12-15T07:05:25.566Z,24
2017-12-15T07:06:06.077Z,24
2017-12-15T07:06:46.907Z,24
2017-12-15T07:07:28.934Z,24
2017-12-15T07:08:09.481Z,28
2017-12-15T07:08:50.678Z,28
2017-12-15T07:09:31.287Z,28
2017-12-15T07:10:11.942Z,28
2017-12-15T07:10:52.729Z,28
2017-12-15T07:11:33.440Z,32
2017-12-15T07:12:14.069Z,32
2017-12-15T07:12:56.717Z,36
2017-12-15T07:13:37.184Z,36
2017-12-15T07:14:18.665Z,44
2017-12-15T07:14:59.406Z,48
2017-12-15T07:15:41.063Z,60
2017-12-15T07:24:42.072Z,72
2017-12-15T07:25:22.625Z,72
2017-12-15T07:26:03.223Z,68
2017-12-15T07:26:43.783Z,60
2017-12-15T07:27:24.353Z,60
2017-12-15T07:28:04.873Z,60
2017-12-15T07:28:45.409Z,60
2017-12-15T07:29:25.953Z,60
2017-12-15T07:30:06.448Z,64
2017-12-15T07:30:47.161Z,64
2017-12-15T07:31:27.670Z,64
2017-12-15T07:32:08.562Z,72
2017-12-15T07:32:49.143Z,72
2017-12-15T07:33:29.641Z,76
2017-12-15T07:34:10.444Z,76
2017-12-15T07:34:50.978Z,68
2017-12-15T07:35:31.558Z,68
2017-12-15T07:36:12.034Z,64
2017-12-15T07:36:52.691Z,64
2017-12-15T07:37:33.157Z,68
2017-12-15T07:38:13.632Z,68
2017-12-15T07:38:54.228Z,68
2017-12-15T07:39:34.817Z,72
2017-12-15T07:40:15.289Z,76
2017-12-15T07:40:55.770Z,72
2017-12-15T07:41:36.955Z,72
2017-12-15T07:42:16.870Z,72
2017-12-15T07:42:57.424Z,76
2017-12-15T07:43:38.004Z,80
2017-12-15T07:44:18.515Z,88
2017-12-15T07:44:59.170Z,96
2017-12-15T07:45:40.290Z,104
2017-12-15T07:46:20.871Z,116
2017-12-15T07:47:01.462Z,124
2017-12-15T07:47:41.938Z,136
2017-12-15T07:48:22.553Z,136
2017-12-15T07:49:03.018Z,144
2017-12-15T07:49:43.643Z,156
2017-12-15T07:50:24.092Z,160
2017-12-15T07:51:04.640Z,168
2017-12-15T07:51:45.103Z,172
2017-12-15T07:52:25.741Z,172
2017-12-15T07:53:06.321Z,172
2017-12-15T07:53:46.815Z,188
2017-12-15T07:54:27.314Z,192
2017-12-15T07:55:07.827Z,184
2017-12-15T07:55:48.480Z,172
2017-12-15T07:56:28.985Z,152
2017-12-15T07:57:09.495Z,144
2017-12-15T07:57:50.069Z,140
2017-12-15T07:58:30.587Z,148
2017-12-15T07:59:11.128Z,156
2017-12-15T07:59:51.636Z,168
2017-12-15T08:00:32.195Z,176
2017-12-15T08:01:12.718Z,184
2017-12-15T08:01:53.296Z,196
2017-12-15T08:02:33.873Z,212
2017-12-15T08:03:14.374Z,224
2017-12-15T08:03:54.944Z,232
2017-12-15T08:04:35.519Z,244
2017-12-15T08:05:16.028Z,248
2017-12-15T08:05:56.566Z,256
2017-12-15T08:06:37.262Z,252
2017-12-15T08:07:17.832Z,252
2017-12-15T08:07:58.352Z,244
2017-12-15T08:08:38.879Z,256
2017-12-15T08:09:19.405Z,264
2017-12-15T08:09:59.966Z,256
2017-12-15T08:10:40.456Z,264
2017-12-15T08:11:20.982Z,272
2017-12-15T08:12:01.588Z,272
2017-12-15T08:12:42.151Z,280
2017-12-15T08:13:22.630Z,288
2017-12-15T08:14:03.171Z,300
2017-12-15T08:14:43.707Z,316
2017-12-15T08:15:24.228Z,320
2017-12-15T08:16:04.776Z,344
2017-12-15T08:16:45.318Z,368
2017-12-15T08:17:25.841Z,388
2017-12-15T08:18:06.368Z,396
2017-12-15T08:18:46.918Z,412
2017-12-15T08:19:27.460Z,420
2017-12-15T08:20:07.990Z,412
2017-12-15T08:20:48.498Z,388
2017-12-15T08:21:29.060Z,388
2017-12-15T08:22:09.616Z,372
2017-12-15T08:22:50.132Z,376
2017-12-15T08:23:30.661Z,408
2017-12-15T08:24:11.185Z,404
2017-12-15T08:24:51.718Z,428
2017-12-15T08:25:32.225Z,504
2017-12-15T08:26:12.777Z,532
2017-12-15T08:26:53.433Z,500
2017-12-15T08:27:33.977Z,480
2017-12-15T08:28:14.502Z,464
2017-12-15T08:28:55.119Z,472
2017-12-15T08:29:35.618Z,524
2017-12-15T08:30:16.135Z,548
2017-12-15T08:30:56.738Z,540
2017-12-15T08:31:37.247Z,528
2017-12-15T08:32:17.762Z,508
2017-12-15T08:32:58.288Z,496
2017-12-15T08:33:38.822Z,564
2017-12-15T08:34:19.358Z,616
2017-12-15T08:34:59.878Z,580
2017-12-15T08:35:40.399Z,604
2017-12-15T08:36:20.931Z,620
2017-12-15T08:37:01.547Z,664
2017-12-15T08:37:42.274Z,704
2017-12-15T08:38:22.765Z,700
2017-12-15T08:39:03.256Z,676
2017-12-15T08:39:43.819Z,672
2017-12-15T08:40:24.380Z,716
2017-12-15T08:41:04.912Z,768
2017-12-15T08:41:45.461Z,852
2017-12-15T08:42:25.971Z,988
2017-12-15T08:43:06.468Z,1084
2017-12-15T08:43:47.079Z,1120
2017-12-15T08:44:27.626Z,1068
2017-12-15T08:45:08.156Z,956
2017-12-15T08:45:48.737Z,956
2017-12-15T08:46:29.285Z,880
2017-12-15T08:47:09.768Z,872
2017-12-15T08:47:50.380Z,884
2017-12-15T08:48:30.939Z,924
2017-12-15T08:49:11.473Z,944
2017-12-15T08:49:51.965Z,948
2017-12-15T08:50:32.693Z,964
2017-12-15T08:51:13.213Z,1016
2017-12-15T08:51:53.782Z,1096
2017-12-15T08:52:34.313Z,1116
2017-12-15T08:53:14.806Z,1100
2017-12-15T08:53:55.337Z,1100
2017-12-15T08:54:35.890Z,1164
2017-12-15T08:55:16.450Z,1260
2017-12-15T08:55:57.046Z,1144
2017-12-15T08:56:37.560Z,1168
2017-12-15T08:57:18.090Z,1324
2017-12-15T08:57:58.705Z,1332
2017-12-15T08:58:39.226Z,1424
2017-12-15T08:59:19.774Z,1476
2017-12-15T09:00:00.338Z,1456
2017-12-15T09:00:40.814Z,1424
2017-12-15T09:01:21.341Z,1444
2017-12-15T09:02:01.925Z,1436
2017-12-15T09:02:42.429Z,1380
2017-12-15T09:03:22.969Z,1328
2017-12-15T09:04:03.680Z,1220
2017-12-15T09:04:44.150Z,1224
2017-12-15T09:05:24.719Z,1216
2017-12-15T09:06:05.229Z,1208
2017-12-15T09:06:45.716Z,1132
2017-12-15T09:07:26.316Z,1016
2017-12-15T09:08:06.850Z,944
2017-12-15T09:08:47.390Z,948
2017-12-15T09:09:27.916Z,888
2017-12-15T09:10:08.514Z,940
2017-12-15T09:10:49.140Z,976
2017-12-15T09:11:29.695Z,1056
2017-12-15T09:12:10.209Z,1188
2017-12-15T09:12:50.722Z,1300
2017-12-15T09:13:31.233Z,1388
2017-12-15T09:14:11.786Z,1432
2017-12-15T09:14:52.339Z,1476
2017-12-15T09:15:32.937Z,1548
2017-12-15T09:16:13.472Z,1648
2017-12-15T09:16:54.008Z,1716
2017-12-15T09:17:34.587Z,1800
2017-12-15T09:18:15.076Z,1860
2017-12-15T09:18:55.641Z,1884
2017-12-15T09:19:36.137Z,1916
2017-12-15T09:20:16.635Z,1956
2017-12-15T09:20:57.169Z,1920
2017-12-15T09:21:37.728Z,1988
2017-12-15T09:22:18.200Z,1984
2017-12-15T09:22:58.782Z,1964
2017-12-15T09:23:39.340Z,2056
2017-12-15T09:24:19.953Z,2104
2017-12-15T09:25:00.506Z,2092
2017-12-15T09:25:41.010Z,2084
2017-12-15T09:26:21.583Z,2064
2017-12-15T09:27:02.130Z,2072
2017-12-15T09:27:42.677Z,2072
2017-12-15T09:28:24.020Z,2076
2017-12-15T09:29:04.546Z,2096
2017-12-15T09:29:45.077Z,2144
2017-12-15T09:30:25.673Z,2204
2017-12-15T09:31:06.198Z,2276
2017-12-15T09:31:46.744Z,2340
2017-12-15T09:32:27.261Z,2440
2017-12-15T09:33:07.837Z,2536
2017-12-15T09:33:48.371Z,2616
2017-12-15T09:34:28.939Z,2676
2017-12-15T09:35:09.565Z,2732
2017-12-15T09:35:50.092Z,2784
2017-12-15T09:36:30.673Z,2848
2017-12-15T09:37:11.230Z,2888
2017-12-15T09:37:51.785Z,2928
2017-12-15T09:38:32.293Z,2964
2017-12-15T09:39:12.859Z,3020
2017-12-15T09:39:53.349Z,3028
2017-12-15T09:40:33.955Z,3024
2017-12-15T09:41:14.473Z,3008
2017-12-15T09:41:54.995Z,3004
2017-12-15T09:42:35.672Z,3012
2017-12-15T09:43:16.158Z,2948
2017-12-15T09:43:56.714Z,2884
2017-12-15T09:44:37.256Z,2816
2017-12-15T09:45:17.783Z,2820
2017-12-15T09:45:58.302Z,2840
2017-12-15T09:46:38.825Z,2880
2017-12-15T09:47:19.340Z,2900
2017-12-15T09:47:59.838Z,2936
2017-12-15T09:48:40.472Z,3008
2017-12-15T09:49:21.034Z,3152
2017-12-15T09:50:01.564Z,3208
2017-12-15T09:50:42.111Z,3096
2017-12-15T09:51:22.638Z,3044
2017-12-15T09:52:03.211Z,2944
2017-12-15T09:52:43.693Z,3076
2017-12-15T09:53:24.240Z,3144
2017-12-15T09:54:04.782Z,3228
2017-12-15T09:54:45.381Z,3384